Terminal Aerodrome Forecast
Issued by NWS

Home | Current Version | Previous Version | Graphics & Text | Print | Product List | Glossary On
Versions: 1 2 3 4 5 6 7 8 9 10 11 12 13 14 15 16 17 18 19 20 21 22 23 24 25 26 27 28 29 30
000
FTUS43 KLOT 192300
TAFORD
TAF
KORD 192324Z 2000/2106 10006KT P6SM FEW060 BKN250
     FM200200 00000KT P6SM BKN250
     FM201500 20007KT P6SM FEW050 SCT250
     FM202200 11009KT P6SM FEW060 SCT250
     FM210200 14005KT P6SM SCT250=

USA.gov is the U.S. government's official web portal to all federal, state and local government web resources and services.